Flight Track Log - Related Links

Times and Time Zones

All times are in EDT time to prevent confusion due to time zone crossing. See the EJA982 flight status page for this flight to view local times or setup timezone preferences in your user account.

Time Position Orientation Groundspeed Altitude Reporting Facility
EDT Latitude Longitude Course Direction KTS MPH feet Rate Location/Type
Fri 03:43:10 PM 26.7347 -79.9503 69° East 253 291 6,300  Level Miami Center
Fri 03:44:10 PM 26.7903 -79.8936 42° Northeast 278 320 9,000 2,650 Climbing Miami Center
Fri 03:45:10 PM 26.8525 -79.8114 50° Northeast 310 357 11,600 2,250 Climbing Miami Center
Fri 03:46:10 PM 26.9150 -79.7244 51° Northeast 342 394 13,500 1,950 Climbing Miami Center
Fri 03:47:00 PM 27.0895 -79.4257 48° Northeast  Level FlightAware Approximate
Fri 03:47:10 PM 26.9772 -79.6281 54° Northeast 363 418 15,500  Level Miami Center
Fri 03:48:00 PM 27.1622 -79.3133 69° East  Level FlightAware Approximate
Fri 03:48:10 PM 27.0375 -79.5361 54° Northeast 391 450 17,700  Level Miami Center
Fri 03:49:10 PM 27.0978 -79.4397 55° Northeast 391 450 19,800 2,050 Climbing Miami Center
Fri 03:50:10 PM 27.1708 -79.3292 53° Northeast 391 450 21,800 1,600 Climbing Miami Center
Fri 03:51:10 PM 27.2392 -79.2233 54° Northeast 402 463 23,000 600 Climbing Miami Center
Fri 03:52:10 PM 27.3078 -79.1217 53° Northeast 435 501 23,000 900 Level Miami Center
Fri 03:53:10 PM 27.3806 -79.0061 55° Northeast 453 521 24,800 1,950 Climbing Miami Center
Fri 03:54:10 PM 27.4617 -78.8814 54° Northeast 448 516 26,900 1,550 Climbing Miami Center
Fri 03:55:10 PM 27.5383 -78.7703 52° Northeast 443 510 27,900 1,000 Climbing Miami Center
Fri 03:56:10 PM 27.6517 -78.7228 20° North 431 496 28,900 550 Climbing Miami Center
Fri 03:57:10 PM 27.7711 -78.7014 North 449 517 29,000 50 Climbing Miami Center
Fri 03:58:10 PM 27.9133 -78.6800 North 461 531 29,000 600 Level Miami Center
Fri 03:59:10 PM 28.0472 -78.6539 10° North 474 545 30,200 1,600 Climbing Miami Center
Fri 04:00:10 PM 28.1811 -78.6350 North 479 551 32,200 2,000 Climbing Miami Center
Fri 04:01:10 PM 28.3044 -78.6108 10° North 469 540 34,200 2,000 Climbing Miami Center
Fri 04:02:10 PM 28.4281 -78.5917 North 456 525 36,200 2,000 Climbing Miami Center
Fri 04:03:10 PM 28.5472 -78.5697 North 446 513 38,200 2,000 Climbing Miami Center
Fri 04:04:10 PM 28.6683 -78.5481 North 440 506 40,200 1,400 Climbing Miami Center
Fri 04:05:10 PM 28.7833 -78.5308 North 426 490 41,000 400 Climbing Miami Center
Fri 04:06:10 PM 28.9047 -78.5064 10° North 426 490 41,000  Level Miami Center
Fri 04:07:10 PM 29.0344 -78.4847 North 439 505 41,000  Level Miami Center
Fri 04:08:10 PM 29.1639 -78.4653 North 452 520 41,000 250 Level Miami Center
Fri 04:09:10 PM 29.2914 -78.4433 North 462 532 41,500 800 Climbing Miami Center
Fri 04:10:10 PM 29.4022 -78.4211 10° North 462 532 42,600 750 Climbing Miami Center
Fri 04:11:10 PM 29.5297 -78.3992 North 460 529 43,000 200 Climbing Miami Center
Fri 04:12:10 PM 29.6511 -78.3744 10° North 460 529 43,000  Level Miami Center
Fri 04:13:10 PM 29.7908 -78.3597 North 467 537 43,000  Level Miami Center
Fri 04:14:03 PM 29.9069 -78.3236 15° North 476 548 43,000  Level Jacksonville Center
Fri 04:15:03 PM 30.0317 -78.3106 North 464 534 43,000  Level Jacksonville Center
Fri 04:16:03 PM 30.1561 -78.2856 10° North 457 526 43,000  Level Jacksonville Center
Fri 04:17:03 PM 30.2806 -78.2625 North 465 535 43,000  Level Jacksonville Center
Fri 04:18:03 PM 30.4278 -78.2339 10° North 473 544 43,000  Level Jacksonville Center
Fri 04:19:03 PM 30.5500 -78.2133 North 464 534 43,000  Level Jacksonville Center
Fri 04:20:03 PM 30.6847 -78.1875 North 473 544 43,000  Level Jacksonville Center
Fri 04:21:03 PM 30.8156 -78.1664 North 468 539 43,000  Level Jacksonville Center
Fri 04:22:03 PM 30.9503 -78.1428 North 475 547 43,000  Level Jacksonville Center
Fri 04:23:03 PM 31.0639 -78.1128 13° North 475 547 43,000  Level Jacksonville Center
Fri 04:24:03 PM 31.1925 -78.0892 North 475 547 43,000  Level Jacksonville Center
Fri 04:25:03 PM 31.3253 -78.0653 North 475 547 43,000  Level Jacksonville Center
Fri 04:26:03 PM 31.4539 -78.0467 North 475 547 43,000  Level Jacksonville Center
Fri 04:27:03 PM 31.5883 -78.0178 10° North 480 552 43,000  Level Jacksonville Center
Fri 04:28:03 PM 31.7192 -77.9961 North 480 552 43,000  Level Jacksonville Center
Fri 04:29:03 PM 31.8497 -77.9697 10° North 480 552 43,000  Level Jacksonville Center
Fri 04:30:03 PM 31.9822 -77.9431 10° North 480 552 43,000  Level Jacksonville Center
Fri 04:31:03 PM 32.1147 -77.9186 North 480 552 43,000  Level Jacksonville Center
Fri 04:32:03 PM 32.2433 -77.8969 North 480 552 43,000  Level Jacksonville Center
Fri 04:33:03 PM 32.3739 -77.8725 North 480 552 43,000  Level Jacksonville Center
Fri 04:34:03 PM 32.5064 -77.8456 10° North 480 552 43,000  Level Jacksonville Center
Fri 04:35:03 PM 32.6392 -77.8233 North 480 552 43,000  Level Jacksonville Center
Fri 04:36:03 PM 32.7717 -77.8011 North 480 552 43,000  Level Jacksonville Center
Fri 04:37:03 PM 32.9042 -77.7739 10° North 480 552 43,000  Level Jacksonville Center
Fri 04:38:46 PM 33.1453 -77.7292 North 487 560 43,000  Level Washington Center
Fri 04:39:47 PM 33.2772 -77.7028 North 487 560 43,000  Level Washington Center
Fri 04:40:47 PM 33.4089 -77.6789 North 487 560 43,000  Level Washington Center
Fri 04:41:45 PM 33.5389 -77.6397 14° North 487 560 43,000  Level Washington Center
Fri 04:42:46 PM 33.6692 -77.5831 20° North 487 560 43,000  Level Washington Center
Fri 04:43:47 PM 33.7953 -77.5236 21° North 487 560 43,000  Level Washington Center
Fri 04:44:45 PM 33.9256 -77.4639 21° North 493 567 43,000  Level Washington Center
Fri 04:45:45 PM 34.0558 -77.4042 21° North 493 567 43,000  Level Washington Center
Fri 04:46:46 PM 34.1839 -77.3469 20° North 493 567 43,000  Level Washington Center
Fri 04:47:47 PM 34.3100 -77.2892 21° North 488 562 43,000 -706 Level Washington Center
Fri 04:48:45 PM 34.4275 -77.2361 20° North 497 572 41,600 -1,916 Descending Washington Center
Fri 04:49:46 PM 34.5472 -77.1781 22° Northeast 477 549 39,200 -2,410 Descending Washington Center
Fri 04:50:47 PM 34.6669 -77.1247 20° North 461 531 36,700 -2,066 Descending Washington Center
Fri 04:51:48 PM 34.7886 -77.0664 21° North 461 531 35,000 -864 Descending Washington Center
Fri 04:52:45 PM 34.9083 -77.0128 20° North 456 525 35,000 -102 Level Washington Center
Fri 04:53:46 PM 35.0194 -76.9592 22° Northeast 449 517 34,800 -645 Descending Washington Center
Fri 04:54:46 PM 35.1475 -76.8978 21° North 443 510 33,700 -893 Descending Washington Center
Fri 04:55:47 PM 35.2753 -76.8386 21° North 459 528 33,000 -353 Descending Washington Center
Fri 04:56:45 PM 35.4011 -76.7719 23° Northeast 473 544 33,000  Level Washington Center
Fri 04:57:45 PM 35.5247 -76.7175 20° North 502 578 33,000  Level Washington Center
Fri 04:58:46 PM 35.6694 -76.6456 22° Northeast 512 589 33,000  Level Washington Center
Fri 04:59:47 PM 35.7889 -76.5906 20° North 512 589 33,000  Level Washington Center
Fri 05:00:45 PM 35.9314 -76.5233 21° North 507 583 33,000 -50 Level Washington Center
Fri 05:01:46 PM 36.0589 -76.4578 23° Northeast 501 577 32,900 -295 Descending Washington Center
Fri 05:02:47 PM 36.1889 -76.4000 20° North 496 571 32,400 -1,008 Descending Washington Center
Fri 05:03:45 PM 36.3247 -76.3344 21° North 496 571 30,900 -1,513 Descending Washington Center
Fri 05:04:46 PM 36.4628 -76.2661 22° Northeast 517 595 29,400 -942 Descending Washington Center
Fri 05:05:46 PM 36.6031 -76.1975 21° North 531 611 29,000 -198 Descending Washington Center
Fri 05:06:47 PM 36.7244 -76.1361 22° Northeast 531 611 29,000  Level Washington Center
Fri 05:07:45 PM 36.8686 -76.0619 22° Northeast 526 605 29,000  Level Washington Center
Fri 05:08:46 PM 37.0064 -76.0003 20° North 513 590 29,000  Level Washington Center
Fri 05:09:48 PM 37.1403 -75.9331 22° Northeast 513 590 29,000 -252 Level Washington Center
Fri 05:10:45 PM 37.2739 -75.8633 23° Northeast 513 590 28,500 -1,068 Descending Washington Center
Fri 05:11:46 PM 37.4056 -75.7906 24° Northeast 513 590 26,900 -1,525 Descending Washington Center
Fri 05:12:47 PM 37.5308 -75.7228 23° Northeast 503 579 25,400 -942 Descending Washington Center
Fri 05:13:47 PM 37.6558 -75.6494 25° Northeast 498 573 25,000 -712 Descending Washington Center
Fri 05:14:45 PM 37.7853 -75.5814 23° Northeast 498 573 24,000 -1,109 Descending Washington Center
Fri 05:15:46 PM 37.8958 -75.5208 23° Northeast 498 573 22,800 -1,339 Descending Washington Center
Fri 05:16:46 PM 38.0167 -75.4494 25° Northeast 482 555 21,300 -1,289 Descending Washington Center
Fri 05:17:47 PM 38.1375 -75.3858 22° Northeast 472 543 20,200 -1,140 Descending Washington Center
Fri 05:18:47 PM 38.2542 -75.3194 24° Northeast 458 527 19,000 -1,220 Descending Washington Center
Fri 05:19:45 PM 38.3686 -75.2500 25° Northeast 453 521 17,800 -1,210 Descending Washington Center
Fri 05:20:46 PM 38.4811 -75.1806 26° Northeast 453 521 16,600 -1,131 Descending Washington Center
Fri 05:21:47 PM 38.5933 -75.1217 22° Northeast 447 514 15,500 -807 Descending Washington Center
Fri 05:22:45 PM 38.7036 -75.0517 26° Northeast 436 502 15,000 -303 Descending Washington Center
Fri 05:23:46 PM 38.8158 -74.9842 25° Northeast 436 502 14,900 -443 Descending Washington Center
Fri 05:24:47 PM 38.9156 -74.9219 26° Northeast 423 487 14,100 -893 Descending Washington Center
Fri 05:25:47 PM 39.0028 -74.8650 27° Northeast 381 438 13,100 -1,068 Descending Washington Center
Fri 05:26:45 PM 39.0942 -74.8081 26° Northeast 358 412 12,000 -1,059 Descending Washington Center
Fri 05:27:46 PM 39.1858 -74.8311 349° North 332 382 11,000 -1,017 Descending Washington Center
Fri 05:29:42 PM 39.3500 -74.9000 342° North 282 325 9,000 -706 Descending Philadelphia TRACON
Fri 05:30:36 PM 39.4167 -74.9167 349° North 285 328 9,000 -1,105 Level Philadelphia TRACON
Fri 05:31:36 PM 39.5000 -74.9500 343° North 280 322 6,900 -1,579 Descending Philadelphia TRACON
Fri 05:32:30 PM 39.5500 -74.9833 333° Northwest 267 307 6,000 -595 Descending Philadelphia TRACON
Fri 05:33:37 PM 39.6167 -75.0333 330° Northwest 267 307 5,700 -905 Descending Philadelphia TRACON
Fri 05:34:36 PM 39.6667 -75.1000 314° West 257 296 4,100 -1,540 Descending Philadelphia TRACON
Fri 05:35:30 PM 39.7000 -75.1667 303° West 239 275 2,800 -1,105 Descending Philadelphia TRACON
Fri 05:36:30 PM 39.7333 -75.2333 303° West 210 242 2,000 -381 Descending Philadelphia TRACON
Fri 05:37:36 PM 39.7667 -75.1833 49° Northeast 180 207 2,000 -298 Level Philadelphia TRACON
Fri 05:38:31 PM 39.8167 -75.2000 346° North 179 206 1,400 -850 Descending Philadelphia TRACON
Fri 05:39:36 PM 39.8667 -75.2167 346° North 136 157 300 -1,015 Descending Philadelphia TRACON

Login

Don't have an account? Register now (free) for customized features, flight alerts, and more!